Time;durP1;ratioP1;P1;durP2;ratioP2;P2;SDS_P1;SDS_P2;PMS_P1;PMS_P2;Temp;Humidity;BMP_temperature;BMP_pressure;BME280_temperature;BME280_humidity;BME280_pressure;Samples;Min_cycle;Max_cycle;Signal;HPM_P1;HPM_P2
2022/03/09 00:02:14;;;;;;;;;;;3.60;99.90;;;;;;5014066;28;19992;-81
2022/03/09 00:04:40;;;;;;;;;;;3.50;99.90;;;;;;5016395;28;20004;-80
2022/03/09 00:07:05;;;;;;;;;;;3.40;99.90;;;;;;5021249;28;19914;-79
2022/03/09 00:09:31;;;;;;;;;;;3.30;99.90;;;;;;5029791;28;19924;-79
2022/03/09 00:11:56;;;;;;;;;;;3.30;99.90;;;;;;5019673;28;19936;-79
2022/03/09 00:14:22;;;;;;;;;;;3.30;99.90;;;;;;5014050;28;19910;-80
2022/03/09 00:16:47;;;;;;;;;;;3.30;99.90;;;;;;5016452;28;19916;-80
2022/03/09 00:19:13;;;;;;;;;;;3.20;99.90;;;;;;5018158;28;19949;-80
2022/03/09 00:21:38;;;;;;;;;;;3.20;99.90;;;;;;5019506;28;19952;-79
2022/03/09 00:24:04;;;;;;;;;;;3.10;99.90;;;;;;5034513;28;19910;-79
2022/03/09 00:26:29;;;;;;;;;;;3.00;99.90;;;;;;5017769;28;19960;-80
2022/03/09 00:28:55;;;;;;;;;;;2.90;99.90;;;;;;5018955;28;19948;-80
2022/03/09 00:31:20;;;;;;;;;;;2.90;99.90;;;;;;5019171;28;19998;-79
2022/03/09 00:33:45;;;;;;;;;;;2.90;99.90;;;;;;5018447;28;20003;-79
2022/03/09 00:36:11;;;;;;;;;;;2.90;99.90;;;;;;5019277;28;19917;-81
2022/03/09 00:38:36;;;;;;;;;;;2.90;99.90;;;;;;5018508;28;19920;-80
2022/03/09 00:41:02;;;;;;;;;;;2.90;99.90;;;;;;5018892;28;19910;-81
2022/03/09 00:43:28;;;;;;;;;;;2.80;99.90;;;;;;5018723;28;19917;-79
2022/03/09 00:45:54;;;;;;;;;;;2.80;99.90;;;;;;5018882;28;19916;-79
2022/03/09 00:48:19;;;;;;;;;;;2.80;99.90;;;;;;5018516;28;19909;-81
2022/03/09 00:50:45;;;;;;;;;;;2.80;99.90;;;;;;5034845;28;19913;-80
2022/03/09 00:53:11;;;;;;;;;;;2.80;99.90;;;;;;5019172;28;19936;-80
2022/03/09 00:55:36;;;;;;;;;;;2.80;99.90;;;;;;5019405;28;19918;-81
2022/03/09 00:58:02;;;;;;;;;;;2.80;99.90;;;;;;5019951;28;20000;-80
2022/03/09 01:00:27;;;;;;;;;;;2.70;99.90;;;;;;5019217;28;20003;-79
2022/03/09 01:02:53;;;;;;;;;;;2.70;99.90;;;;;;5018175;28;20026;-80
2022/03/09 01:05:18;;;;;;;;;;;2.70;99.90;;;;;;5019304;28;19909;-80
2022/03/09 01:07:44;;;;;;;;;;;2.60;99.90;;;;;;5019035;28;19959;-80
2022/03/09 01:10:10;;;;;;;;;;;2.60;99.90;;;;;;5019112;28;19913;-80
2022/03/09 01:12:36;;;;;;;;;;;2.60;99.90;;;;;;5018616;28;19914;-80
2022/03/09 01:15:02;;;;;;;;;;;2.50;99.90;;;;;;5018205;28;19917;-81
2022/03/09 01:17:27;;;;;;;;;;;2.50;99.90;;;;;;5019467;28;20378;-80
2022/03/09 01:19:53;;;;;;;;;;;2.50;99.90;;;;;;5019274;28;19909;-80
2022/03/09 01:22:19;;;;;;;;;;;2.50;99.90;;;;;;5017414;28;19909;-80
2022/03/09 01:24:44;;;;;;;;;;;2.40;99.90;;;;;;5017106;28;19913;-80
2022/03/09 01:27:10;;;;;;;;;;;2.40;99.90;;;;;;5018809;28;19910;-79
2022/03/09 01:29:35;;;;;;;;;;;2.40;99.90;;;;;;5033468;28;19964;-79
2022/03/09 01:32:01;;;;;;;;;;;2.30;99.90;;;;;;5019231;28;19914;-80
2022/03/09 01:34:26;;;;;;;;;;;2.30;99.90;;;;;;5018303;28;19964;-80
2022/03/09 01:36:52;;;;;;;;;;;2.30;99.90;;;;;;5018974;28;20324;-80
2022/03/09 01:39:18;;;;;;;;;;;2.20;99.90;;;;;;5018924;28;19920;-79
2022/03/09 01:41:43;;;;;;;;;;;2.20;99.90;;;;;;5017312;28;20032;-80
2022/03/09 01:44:13;;;;;;;;;;;2.20;99.90;;;;;;5014507;28;19916;-80
2022/03/09 01:46:39;;;;;;;;;;;2.20;99.90;;;;;;5015412;28;20011;-80
2022/03/09 01:49:05;;;;;;;;;;;2.20;99.90;;;;;;5017753;28;19909;-81
2022/03/09 01:51:32;;;;;;;;;;;2.20;99.90;;;;;;5018123;28;19923;-80
2022/03/09 01:53:58;;;;;;;;;;;2.20;99.90;;;;;;5017860;28;19909;-81
2022/03/09 01:56:23;;;;;;;;;;;2.20;99.90;;;;;;5018842;28;19923;-80
2022/03/09 01:58:49;;;;;;;;;;;2.20;99.90;;;;;;5017494;28;19909;-80
2022/03/09 02:01:14;;;;;;;;;;;2.20;99.90;;;;;;5014644;28;19913;-80
2022/03/09 02:03:40;;;;;;;;;;;2.10;99.90;;;;;;5029556;28;19918;-80
2022/03/09 02:06:06;;;;;;;;;;;2.10;99.90;;;;;;4999403;28;19910;-79
2022/03/09 02:11:15;;;;;;;;;;;2.00;99.90;;;;;;5018878;28;19967;-79
2022/03/09 02:13:41;;;;;;;;;;;2.00;99.90;;;;;;5017798;28;19980;-81
2022/03/09 02:16:06;;;;;;;;;;;1.90;99.90;;;;;;5017569;28;20294;-80
2022/03/09 02:18:32;;;;;;;;;;;1.90;99.90;;;;;;5017423;28;19914;-81
2022/03/09 02:20:59;;;;;;;;;;;1.90;99.90;;;;;;5018194;28;19968;-81
2022/03/09 02:23:24;;;;;;;;;;;1.90;99.90;;;;;;5016728;28;19913;-80
2022/03/09 02:25:50;;;;;;;;;;;1.90;99.90;;;;;;5018698;28;20263;-81
2022/03/09 02:28:15;;;;;;;;;;;1.90;99.90;;;;;;5016983;28;19914;-81
2022/03/09 02:30:40;;;;;;;;;;;1.90;99.90;;;;;;5018574;28;19917;-81
2022/03/09 02:33:06;;;;;;;;;;;1.90;99.90;;;;;;5016905;28;19928;-81
2022/03/09 02:35:31;;;;;;;;;;;1.90;99.90;;;;;;5022877;28;20293;-81
2022/03/09 02:37:57;;;;;;;;;;;1.90;99.90;;;;;;5036775;28;19920;-81
2022/03/09 02:40:22;;;;;;;;;;;1.90;99.90;;;;;;5037944;28;19913;-81
2022/03/09 02:42:48;;;;;;;;;;;1.90;99.90;;;;;;5036980;28;20396;-80
2022/03/09 02:45:13;;;;;;;;;;;1.90;99.90;;;;;;5030390;28;19964;-81
2022/03/09 02:47:42;;;;;;;;;;;1.90;99.90;;;;;;5018246;28;19914;-80
2022/03/09 02:50:08;;;;;;;;;;;1.90;99.90;;;;;;5017674;28;19910;-81
2022/03/09 02:52:36;;;;;;;;;;;1.90;99.90;;;;;;5031517;28;19914;-81
2022/03/09 02:55:01;;;;;;;;;;;1.90;99.90;;;;;;5031840;28;19921;-81
2022/03/09 02:57:27;;;;;;;;;;;1.90;99.90;;;;;;5006052;28;20271;-81
2022/03/09 02:59:52;;;;;;;;;;;1.90;99.90;;;;;;5011021;28;19949;-81
2022/03/09 03:02:18;;;;;;;;;;;1.90;99.90;;;;;;4997051;28;19910;-81
2022/03/09 03:04:43;;;;;;;;;;;1.90;99.90;;;;;;5009609;28;19909;-81
2022/03/09 03:07:08;;;;;;;;;;;1.90;99.90;;;;;;5001671;28;19988;-81
2022/03/09 03:09:34;;;;;;;;;;;1.90;99.90;;;;;;4998186;28;19909;-81
2022/03/09 03:11:59;;;;;;;;;;;1.80;99.90;;;;;;5006889;28;19948;-82
2022/03/09 03:14:25;;;;;;;;;;;1.80;99.90;;;;;;5037029;28;19909;-81
2022/03/09 03:16:50;;;;;;;;;;;1.80;99.90;;;;;;5032650;28;20377;-81
2022/03/09 03:19:16;;;;;;;;;;;1.80;99.90;;;;;;5032096;28;19910;-81
2022/03/09 03:21:41;;;;;;;;;;;1.70;99.90;;;;;;5016205;28;20008;-81
2022/03/09 03:24:06;;;;;;;;;;;1.70;99.90;;;;;;5029235;28;19918;-80
2022/03/09 03:26:32;;;;;;;;;;;1.70;99.90;;;;;;5047274;28;20409;-81
2022/03/09 03:28:58;;;;;;;;;;;1.70;99.90;;;;;;5015953;28;19941;-80
2022/03/09 03:31:24;;;;;;;;;;;1.70;99.90;;;;;;5017552;28;19945;-81
2022/03/09 03:33:49;;;;;;;;;;;1.60;99.90;;;;;;5013121;28;20408;-80
2022/03/09 03:36:15;;;;;;;;;;;1.60;99.90;;;;;;5019240;28;19921;-80
2022/03/09 03:38:41;;;;;;;;;;;1.60;99.90;;;;;;5008643;28;19922;-81
2022/03/09 03:41:07;;;;;;;;;;;1.60;99.90;;;;;;4996772;28;20037;-82
2022/03/09 03:43:32;;;;;;;;;;;1.60;99.90;;;;;;5014031;28;19909;-81
2022/03/09 03:45:57;;;;;;;;;;;1.60;99.90;;;;;;5016121;28;19909;-80
2022/03/09 03:48:23;;;;;;;;;;;1.60;99.90;;;;;;5017644;28;19913;-81
2022/03/09 03:50:48;;;;;;;;;;;1.60;99.90;;;;;;5016193;28;19910;-81
2022/03/09 03:53:14;;;;;;;;;;;1.60;99.90;;;;;;5029455;28;19913;-81
2022/03/09 03:55:39;;;;;;;;;;;1.60;99.90;;;;;;5016171;28;20390;-81
2022/03/09 03:58:05;;;;;;;;;;;1.60;99.90;;;;;;5017738;28;19959;-82
2022/03/09 04:00:30;;;;;;;;;;;1.60;99.90;;;;;;5014313;28;20378;-82
2022/03/09 04:02:56;;;;;;;;;;;1.70;99.90;;;;;;5015783;28;19975;-82
2022/03/09 04:05:21;;;;;;;;;;;1.70;99.90;;;;;;5015214;28;19929;-82
2022/03/09 04:07:47;;;;;;;;;;;1.70;99.90;;;;;;5031592;28;19944;-81
2022/03/09 04:10:12;;;;;;;;;;;1.70;99.90;;;;;;5014973;28;19914;-81
2022/03/09 04:12:38;;;;;;;;;;;1.70;99.90;;;;;;5027800;28;19921;-82
2022/03/09 04:15:04;;;;;;;;;;;1.70;99.90;;;;;;4997888;28;19917;-82
2022/03/09 04:17:37;;;;;;;;;;;1.70;99.90;;;;;;5028143;28;20004;-82
2022/03/09 04:20:03;;;;;;;;;;;1.70;99.90;;;;;;5003311;28;20408;-81
2022/03/09 04:22:29;;;;;;;;;;;1.80;99.90;;;;;;5006627;28;20009;-80
2022/03/09 04:24:54;;;;;;;;;;;1.80;99.90;;;;;;5002310;28;19953;-80
2022/03/09 04:27:20;;;;;;;;;;;1.80;99.90;;;;;;5007170;28;19917;-81
2022/03/09 04:29:45;;;;;;;;;;;1.80;99.90;;;;;;5015237;28;19910;-80
2022/03/09 04:32:11;;;;;;;;;;;1.80;99.90;;;;;;5015651;28;20004;-81
2022/03/09 04:34:37;;;;;;;;;;;1.90;99.90;;;;;;5014777;28;19924;-81
2022/03/09 04:37:02;;;;;;;;;;;1.90;99.90;;;;;;5014800;28;19921;-82
2022/03/09 04:39:28;;;;;;;;;;;1.90;99.90;;;;;;5014454;28;19999;-81
2022/03/09 04:41:53;;;;;;;;;;;1.90;99.90;;;;;;5014632;28;19935;-82
2022/03/09 04:44:19;;;;;;;;;;;1.90;99.90;;;;;;5015271;28;19916;-81
2022/03/09 04:46:44;;;;;;;;;;;1.90;99.90;;;;;;5014479;28;20429;-81
2022/03/09 04:49:10;;;;;;;;;;;1.90;99.90;;;;;;5013934;28;19995;-81
2022/03/09 04:51:36;;;;;;;;;;;1.80;99.90;;;;;;5009036;28;19913;-81
2022/03/09 04:54:02;;;;;;;;;;;1.80;99.90;;;;;;5013788;28;19910;-81
2022/03/09 04:56:27;;;;;;;;;;;1.80;99.90;;;;;;5014735;28;20282;-82
2022/03/09 04:58:53;;;;;;;;;;;1.70;99.90;;;;;;5015826;28;19964;-81
2022/03/09 05:01:18;;;;;;;;;;;1.70;99.90;;;;;;5016002;28;19909;-82
2022/03/09 05:03:43;;;;;;;;;;;1.70;99.90;;;;;;5015981;28;20024;-81
2022/03/09 05:06:09;;;;;;;;;;;1.60;99.90;;;;;;5034766;28;20290;-81
2022/03/09 05:08:34;;;;;;;;;;;1.60;99.90;;;;;;5030112;28;19921;-81
2022/03/09 05:11:00;;;;;;;;;;;1.60;99.90;;;;;;5014477;28;19988;-81
2022/03/09 05:13:25;;;;;;;;;;;1.50;99.90;;;;;;5018709;28;19921;-81
2022/03/09 05:15:51;;;;;;;;;;;1.50;99.90;;;;;;5018592;28;19914;-81
2022/03/09 05:18:16;;;;;;;;;;;1.40;99.90;;;;;;5017561;28;19909;-81
2022/03/09 05:20:42;;;;;;;;;;;1.30;99.90;;;;;;5019188;28;20325;-82
2022/03/09 05:23:07;;;;;;;;;;;1.20;99.90;;;;;;5018366;28;19913;-82
2022/03/09 05:25:33;;;;;;;;;;;1.10;99.90;;;;;;5017432;28;19914;-81
2022/03/09 05:27:59;;;;;;;;;;;1.10;99.90;;;;;;5020817;28;19914;-82
2022/03/09 05:30:24;;;;;;;;;;;1.10;99.90;;;;;;5018963;28;19909;-81
2022/03/09 05:32:50;;;;;;;;;;;1.10;99.90;;;;;;5018076;28;19918;-81
2022/03/09 05:35:15;;;;;;;;;;;1.00;99.90;;;;;;5017386;28;19918;-81
2022/03/09 05:37:42;;;;;;;;;;;1.00;99.90;;;;;;5017495;28;19914;-82
2022/03/09 05:40:09;;;;;;;;;;;1.00;99.90;;;;;;5017437;28;19964;-81
2022/03/09 05:42:35;;;;;;;;;;;1.00;99.90;;;;;;5033332;28;20369;-81
2022/03/09 05:45:01;;;;;;;;;;;1.00;99.90;;;;;;5018744;28;20005;-81
2022/03/09 05:47:26;;;;;;;;;;;0.90;99.90;;;;;;5019220;28;19968;-82
2022/03/09 05:49:52;;;;;;;;;;;1.00;99.90;;;;;;5019344;28;19913;-82
2022/03/09 05:52:17;;;;;;;;;;;0.90;99.90;;;;;;5018041;28;19914;-82
2022/03/09 05:54:45;;;;;;;;;;;1.00;99.90;;;;;;5018425;28;19916;-82
2022/03/09 05:57:20;;;;;;;;;;;0.90;99.90;;;;;;5033845;28;19956;-81
2022/03/09 05:59:46;;;;;;;;;;;0.90;99.90;;;;;;5018325;28;19956;-81
2022/03/09 06:02:11;;;;;;;;;;;0.90;99.90;;;;;;5012247;28;19913;-80
2022/03/09 06:04:37;;;;;;;;;;;0.90;99.90;;;;;;5025488;28;19968;-82
2022/03/09 06:07:03;;;;;;;;;;;1.00;99.90;;;;;;5019306;28;19971;-82
2022/03/09 06:09:28;;;;;;;;;;;1.00;99.90;;;;;;5016224;28;20046;-82
2022/03/09 06:11:54;;;;;;;;;;;1.10;99.90;;;;;;5018070;28;20441;-82
2022/03/09 06:14:19;;;;;;;;;;;1.10;99.90;;;;;;5015809;28;19913;-82
2022/03/09 06:16:47;;;;;;;;;;;1.10;99.90;;;;;;5016399;28;19975;-81
2022/03/09 06:19:16;;;;;;;;;;;1.20;99.90;;;;;;5032640;28;19952;-81
2022/03/09 06:21:41;;;;;;;;;;;1.30;99.90;;;;;;5016586;28;20020;-82
2022/03/09 06:24:07;;;;;;;;;;;1.30;99.90;;;;;;5016876;28;19941;-82
2022/03/09 06:26:32;;;;;;;;;;;1.40;99.90;;;;;;5015353;28;19936;-82
2022/03/09 06:28:58;;;;;;;;;;;1.50;99.90;;;;;;5016763;28;19914;-82
2022/03/09 06:31:24;;;;;;;;;;;1.60;99.90;;;;;;5012000;28;19929;-82
2022/03/09 06:33:49;;;;;;;;;;;1.70;99.90;;;;;;5014788;28;19914;-82
2022/03/09 06:36:15;;;;;;;;;;;1.70;99.90;;;;;;4996180;28;19960;-81
2022/03/09 06:38:40;;;;;;;;;;;1.80;99.90;;;;;;5014819;28;20048;-80
2022/03/09 06:41:06;;;;;;;;;;;2.00;99.90;;;;;;5025642;28;19916;-81
2022/03/09 06:43:31;;;;;;;;;;;2.30;99.90;;;;;;5007631;28;19920;-81
2022/03/09 06:45:57;;;;;;;;;;;2.40;99.90;;;;;;5015861;28;19917;-81
2022/03/09 06:48:22;;;;;;;;;;;2.60;99.90;;;;;;5016528;28;19917;-81
2022/03/09 06:50:48;;;;;;;;;;;3.10;99.90;;;;;;5015554;28;19910;-81
2022/03/09 06:53:14;;;;;;;;;;;4.90;99.90;;;;;;5015622;28;19960;-81
2022/03/09 06:55:39;;;;;;;;;;;6.30;99.90;;;;;;5030903;28;19979;-82
2022/03/09 06:58:05;;;;;;;;;;;7.90;99.90;;;;;;5006619;28;19937;-80
2022/03/09 07:00:31;;;;;;;;;;;10.80;99.90;;;;;;5009650;28;19913;-81
2022/03/09 07:02:57;;;;;;;;;;;13.50;99.90;;;;;;5017113;28;19913;-80
2022/03/09 07:05:22;;;;;;;;;;;15.60;99.90;;;;;;5033690;28;19924;-81
2022/03/09 07:07:48;;;;;;;;;;;17.60;99.90;;;;;;5032436;28;20386;-80
2022/03/09 07:10:13;;;;;;;;;;;18.70;99.90;;;;;;5016775;28;19956;-80
2022/03/09 07:12:40;;;;;;;;;;;19.30;99.90;;;;;;5017812;28;19920;-81
2022/03/09 07:15:06;;;;;;;;;;;19.60;99.90;;;;;;5018814;28;19996;-81
2022/03/09 07:17:31;;;;;;;;;;;19.70;99.90;;;;;;5017998;28;20027;-80
2022/03/09 07:19:57;;;;;;;;;;;20.20;99.90;;;;;;5016247;28;20377;-80
2022/03/09 07:22:22;;;;;;;;;;;21.10;99.90;;;;;;5018045;28;19914;-81
2022/03/09 07:24:48;;;;;;;;;;;22.20;99.90;;;;;;5016790;28;20382;-80
2022/03/09 07:27:14;;;;;;;;;;;23.00;99.90;;;;;;5018923;28;20296;-81
2022/03/09 07:29:39;;;;;;;;;;;23.60;99.90;;;;;;5016501;28;20408;-81
2022/03/09 07:32:05;;;;;;;;;;;24.50;99.90;;;;;;5016493;28;19921;-81
2022/03/09 07:34:31;;;;;;;;;;;25.40;99.90;;;;;;5017116;28;19917;-81
2022/03/09 07:36:58;;;;;;;;;;;26.50;99.90;;;;;;5018214;28;20012;-81
2022/03/09 07:39:27;;;;;;;;;;;25.90;99.90;;;;;;5018684;28;19941;-80
2022/03/09 07:41:54;;;;;;;;;;;26.00;99.90;;;;;;5019113;28;19910;-81
2022/03/09 07:44:19;;;;;;;;;;;26.80;99.90;;;;;;5017462;28;19914;-82
2022/03/09 07:46:45;;;;;;;;;;;26.70;99.90;;;;;;5016060;28;19936;-80
2022/03/09 07:49:10;;;;;;;;;;;25.90;99.90;;;;;;5008738;28;19924;-80
2022/03/09 07:51:36;;;;;;;;;;;25.50;99.90;;;;;;5020885;28;19909;-79
2022/03/09 07:54:01;;;;;;;;;;;25.90;99.90;;;;;;5019839;28;20004;-80
2022/03/09 07:56:26;;;;;;;;;;;26.60;99.90;;;;;;5020826;28;19937;-81
2022/03/09 07:58:52;;;;;;;;;;;27.30;99.90;;;;;;5018374;28;20340;-81
2022/03/09 08:01:17;;;;;;;;;;;26.90;99.90;;;;;;5018393;28;19913;-82
2022/03/09 08:03:44;;;;;;;;;;;27.70;99.90;;;;;;5016423;28;19928;-81
2022/03/09 08:06:09;;;;;;;;;;;28.80;99.90;;;;;;5017838;28;19921;-82
2022/03/09 08:08:35;;;;;;;;;;;28.80;99.90;;;;;;5017611;28;19905;-81
2022/03/09 08:11:00;;;;;;;;;;;29.10;99.90;;;;;;5017902;28;19913;-81
2022/03/09 08:13:26;;;;;;;;;;;29.20;99.90;;;;;;5016035;28;19909;-81
2022/03/09 08:15:51;;;;;;;;;;;30.10;99.90;;;;;;5016868;28;19909;-82
2022/03/09 08:18:17;;;;;;;;;;;29.00;99.90;;;;;;5015057;28;19909;-81
2022/03/09 08:20:42;;;;;;;;;;;28.80;99.90;;;;;;5025308;28;19957;-81
2022/03/09 08:23:08;;;;;;;;;;;27.90;99.90;;;;;;5015503;28;20401;-81
2022/03/09 08:25:34;;;;;;;;;;;27.80;99.90;;;;;;5018563;28;19917;-83
2022/03/09 08:28:00;;;;;;;;;;;27.40;99.90;;;;;;5018331;28;19980;-79
2022/03/09 08:30:26;;;;;;;;;;;27.90;99.90;;;;;;5016257;28;19925;-82
2022/03/09 08:32:52;;;;;;;;;;;27.60;99.90;;;;;;5036328;28;19913;-81
2022/03/09 08:35:17;;;;;;;;;;;27.00;99.90;;;;;;5010396;28;19925;-81
2022/03/09 08:37:43;;;;;;;;;;;26.70;99.90;;;;;;5020464;28;19916;-81
2022/03/09 08:40:08;;;;;;;;;;;26.00;99.90;;;;;;5022972;28;19918;-81
2022/03/09 08:42:34;;;;;;;;;;;26.40;99.90;;;;;;5015969;28;19918;-80
2022/03/09 08:44:59;;;;;;;;;;;26.30;99.90;;;;;;5014118;28;19917;-80
2022/03/09 08:47:25;;;;;;;;;;;26.00;99.90;;;;;;5019820;28;19924;-80
2022/03/09 08:49:50;;;;;;;;;;;27.00;99.90;;;;;;5021948;28;19917;-80
2022/03/09 08:52:16;;;;;;;;;;;26.80;99.90;;;;;;5039049;28;19917;-80
2022/03/09 08:54:41;;;;;;;;;;;26.50;99.90;;;;;;5039213;28;19937;-80
2022/03/09 08:57:07;;;;;;;;;;;27.00;99.90;;;;;;5023527;28;19910;-80
2022/03/09 08:59:33;;;;;;;;;;;26.30;99.90;;;;;;5009055;28;19914;-81
2022/03/09 09:01:58;;;;;;;;;;;26.70;99.90;;;;;;5022077;28;20386;-81
2022/03/09 09:04:23;;;;;;;;;;;26.30;99.90;;;;;;5021629;28;20362;-81
2022/03/09 09:06:49;;;;;;;;;;;27.20;99.90;;;;;;5024547;28;19917;-82
2022/03/09 09:09:16;;;;;;;;;;;28.00;99.90;;;;;;5008020;28;19921;-80
2022/03/09 09:11:42;;;;;;;;;;;28.60;99.90;;;;;;5023114;28;19914;-82
2022/03/09 09:14:07;;;;;;;;;;;28.50;99.90;;;;;;5002533;28;19963;-81
2022/03/09 09:16:33;;;;;;;;;;;29.10;99.90;;;;;;5020349;28;20015;-81
2022/03/09 09:18:58;;;;;;;;;;;29.60;99.90;;;;;;5018375;28;19910;-81
2022/03/09 09:21:24;;;;;;;;;;;29.80;99.90;;;;;;5032242;28;20373;-81
2022/03/09 09:23:49;;;;;;;;;;;30.60;99.90;;;;;;5027956;28;19918;-80
2022/03/09 09:26:15;;;;;;;;;;;29.80;99.90;;;;;;5020460;28;19996;-81
2022/03/09 09:28:41;;;;;;;;;;;29.60;99.90;;;;;;5017732;28;19919;-80
2022/03/09 09:31:07;;;;;;;;;;;30.30;99.90;;;;;;5024869;28;20370;-83
2022/03/09 09:33:32;;;;;;;;;;;31.40;99.90;;;;;;5015661;28;19917;-83
2022/03/09 09:35:57;;;;;;;;;;;31.40;99.90;;;;;;5033859;28;19921;-82
2022/03/09 09:38:23;;;;;;;;;;;30.20;99.90;;;;;;5019209;28;20333;-82
2022/03/09 09:40:51;;;;;;;;;;;29.20;99.90;;;;;;5033367;28;19914;-83
2022/03/09 09:43:17;;;;;;;;;;;29.20;99.90;;;;;;5019427;28;19913;-83
2022/03/09 09:45:43;;;;;;;;;;;29.70;99.90;;;;;;5022829;28;20444;-83
2022/03/09 09:48:09;;;;;;;;;;;28.50;99.90;;;;;;5019810;28;19910;-81
2022/03/09 09:50:35;;;;;;;;;;;27.70;99.90;;;;;;5021201;28;19968;-81
2022/03/09 09:53:04;;;;;;;;;;;26.90;99.90;;;;;;5020736;28;20297;-82
2022/03/09 09:55:30;;;;;;;;;;;28.00;99.90;;;;;;5023102;28;19982;-82
2022/03/09 09:57:56;;;;;;;;;;;28.70;99.90;;;;;;5025917;28;19913;-81
2022/03/09 10:00:21;;;;;;;;;;;28.50;99.90;;;;;;5018116;28;20384;-82
2022/03/09 10:02:47;;;;;;;;;;;26.70;99.90;;;;;;5037266;28;19920;-81
2022/03/09 10:05:15;;;;;;;;;;;27.00;99.90;;;;;;5025496;28;20306;-81
2022/03/09 10:07:59;;;;;;;;;;;28.00;99.90;;;;;;5017625;28;19918;-81
2022/03/09 10:10:25;;;;;;;;;;;28.30;99.90;;;;;;5017822;28;19964;-81
2022/03/09 10:12:50;;;;;;;;;;;29.00;99.90;;;;;;5017363;28;20011;-81
2022/03/09 10:15:16;;;;;;;;;;;29.00;99.90;;;;;;5017610;28;20017;-81
2022/03/09 10:17:41;;;;;;;;;;;28.40;99.90;;;;;;5017708;28;19913;-81
2022/03/09 10:20:09;;;;;;;;;;;28.20;99.90;;;;;;5018475;28;19913;-81
2022/03/09 10:22:36;;;;;;;;;;;28.00;99.90;;;;;;5020771;28;19918;-82
2022/03/09 10:25:11;;;;;;;;;;;28.80;99.90;;;;;;5009095;28;19961;-82
2022/03/09 10:27:41;;;;;;;;;;;28.70;99.90;;;;;;5020325;28;19964;-82
2022/03/09 10:30:08;;;;;;;;;;;29.20;99.90;;;;;;5018960;28;19949;-82
2022/03/09 10:32:47;;;;;;;;;;;28.00;99.90;;;;;;5017587;28;20294;-82
2022/03/09 10:35:14;;;;;;;;;;;27.90;99.90;;;;;;5018847;28;19968;-82
2022/03/09 10:37:40;;;;;;;;;;;28.40;99.90;;;;;;5019179;28;19913;-82
2022/03/09 10:40:15;;;;;;;;;;;28.40;99.90;;;;;;5016359;28;19959;-83
2022/03/09 10:42:41;;;;;;;;;;;28.80;99.90;;;;;;5007677;28;19993;-81
2022/03/09 10:45:07;;;;;;;;;;;30.30;99.90;;;;;;5011446;28;20059;-82
2022/03/09 10:47:34;;;;;;;;;;;31.60;99.90;;;;;;5024168;28;19929;-81
2022/03/09 10:50:07;;;;;;;;;;;32.50;99.90;;;;;;5004118;28;19921;-82
2022/03/09 10:52:42;;;;;;;;;;;32.80;99.90;;;;;;5040923;28;20614;-83
2022/03/09 10:55:27;;;;;;;;;;;31.90;99.90;;;;;;5022682;28;20382;-83
2022/03/09 10:58:05;;;;;;;;;;;31.70;99.90;;;;;;5019958;28;19917;-82
2022/03/09 11:00:38;;;;;;;;;;;31.90;99.90;;;;;;5016554;28;19917;-83
2022/03/09 11:03:11;;;;;;;;;;;31.10;99.90;;;;;;5024229;28;19920;-83
2022/03/09 11:05:41;;;;;;;;;;;31.20;99.90;;;;;;5030366;28;20369;-83
2022/03/09 11:08:07;;;;;;;;;;;32.10;99.90;;;;;;5013282;28;20060;-83
2022/03/09 11:10:32;;;;;;;;;;;32.30;99.90;;;;;;5015250;28;19921;-82
2022/03/09 11:12:58;;;;;;;;;;;31.70;99.90;;;;;;5015689;28;19913;-83
2022/03/09 11:15:24;;;;;;;;;;;31.90;99.90;;;;;;5018185;28;20000;-82
2022/03/09 11:17:50;;;;;;;;;;;31.70;99.90;;;;;;5019714;28;19975;-83
2022/03/09 11:20:16;;;;;;;;;;;31.30;99.90;;;;;;5028917;28;19913;-82
2022/03/09 11:22:42;;;;;;;;;;;30.40;99.90;;;;;;5027565;28;19998;-82
2022/03/09 11:25:08;;;;;;;;;;;29.40;99.90;;;;;;5021466;28;19964;-82
2022/03/09 11:27:34;;;;;;;;;;;27.80;99.90;;;;;;5016832;28;20428;-82
2022/03/09 11:30:19;;;;;;;;;;;27.40;99.90;;;;;;5021524;28;19921;-82
2022/03/09 11:32:45;;;;;;;;;;;28.10;99.90;;;;;;5016063;28;20481;-82
2022/03/09 11:35:29;;;;;;;;;;;28.10;99.90;;;;;;5017441;28;19914;-82
2022/03/09 11:37:54;;;;;;;;;;;27.50;99.90;;;;;;5020664;28;19991;-82
2022/03/09 11:40:20;;;;;;;;;;;26.80;99.90;;;;;;5032473;28;19960;-82
2022/03/09 11:42:45;;;;;;;;;;;27.30;99.90;;;;;;5016148;28;20333;-82
2022/03/09 11:45:14;;;;;;;;;;;27.50;99.90;;;;;;5016187;28;19921;-82
2022/03/09 11:47:58;;;;;;;;;;;26.90;99.90;;;;;;5018605;28;19914;-82
2022/03/09 11:50:25;;;;;;;;;;;26.00;99.90;;;;;;5027144;28;19963;-82
2022/03/09 11:52:55;;;;;;;;;;;26.40;99.90;;;;;;5012683;28;19932;-82
2022/03/09 11:55:21;;;;;;;;;;;26.50;99.90;;;;;;5018146;28;19960;-82
2022/03/09 11:57:49;;;;;;;;;;;26.70;99.90;;;;;;5031068;28;19967;-82
2022/03/09 12:00:16;;;;;;;;;;;27.30;99.90;;;;;;4999669;28;19914;-82
2022/03/09 12:02:43;;;;;;;;;;;28.20;99.90;;;;;;5024921;28;19913;-82
2022/03/09 12:05:31;;;;;;;;;;;28.20;99.90;;;;;;5032422;28;19925;-82
2022/03/09 12:07:59;;;;;;;;;;;28.90;99.90;;;;;;5013993;28;19996;-82
2022/03/09 12:10:43;;;;;;;;;;;28.50;99.90;;;;;;5017427;28;19920;-82
2022/03/09 12:13:16;;;;;;;;;;;28.00;99.90;;;;;;5018722;28;19909;-82
2022/03/09 12:16:01;;;;;;;;;;;28.40;99.90;;;;;;5035106;28;19914;-83
2022/03/09 12:18:35;;;;;;;;;;;28.70;99.90;;;;;;5028552;28;19946;-82
2022/03/09 12:21:01;;;;;;;;;;;28.70;99.90;;;;;;5001754;28;19909;-82
2022/03/09 12:23:26;;;;;;;;;;;28.40;99.90;;;;;;5016369;28;19968;-82
2022/03/09 12:25:53;;;;;;;;;;;27.80;99.90;;;;;;5018792;28;19964;-82
2022/03/09 12:28:29;;;;;;;;;;;27.00;99.90;;;;;;5021328;28;19981;-82
2022/03/09 12:30:54;;;;;;;;;;;26.70;99.90;;;;;;5022869;28;19941;-83
2022/03/09 12:33:22;;;;;;;;;;;26.50;99.90;;;;;;5021772;28;19910;-82
2022/03/09 12:35:48;;;;;;;;;;;27.20;99.90;;;;;;5020322;28;19996;-82
2022/03/09 12:38:14;;;;;;;;;;;27.90;99.90;;;;;;5020629;28;20040;-82
2022/03/09 12:40:40;;;;;;;;;;;27.80;99.90;;;;;;5021585;28;19917;-82
2022/03/09 12:43:05;;;;;;;;;;;27.70;99.90;;;;;;5019446;28;20277;-83
2022/03/09 12:45:49;;;;;;;;;;;27.90;99.90;;;;;;5021439;28;19917;-82
2022/03/09 12:48:22;;;;;;;;;;;28.00;99.90;;;;;;5019784;28;19910;-82
2022/03/09 12:50:48;;;;;;;;;;;28.40;99.90;;;;;;5036253;28;19921;-81
2022/03/09 12:53:19;;;;;;;;;;;28.30;99.90;;;;;;5013203;28;20289;-82
2022/03/09 12:55:46;;;;;;;;;;;28.60;99.90;;;;;;5018478;28;19921;-82
2022/03/09 12:58:11;;;;;;;;;;;28.50;99.90;;;;;;5035943;28;19910;-82
2022/03/09 13:00:36;;;;;;;;;;;27.90;99.90;;;;;;5019002;28;19936;-82
2022/03/09 13:03:02;;;;;;;;;;;27.00;99.90;;;;;;5018840;28;20044;-82
2022/03/09 13:05:29;;;;;;;;;;;26.40;99.90;;;;;;5020033;28;19917;-82
2022/03/09 13:07:56;;;;;;;;;;;26.40;99.90;;;;;;5022867;28;19916;-81
2022/03/09 13:10:22;;;;;;;;;;;26.80;99.90;;;;;;5024380;28;20450;-82
2022/03/09 13:12:51;;;;;;;;;;;27.10;99.90;;;;;;5018742;28;19956;-82
2022/03/09 13:15:17;;;;;;;;;;;27.20;99.90;;;;;;5018642;28;20341;-81
2022/03/09 13:17:44;;;;;;;;;;;26.70;99.90;;;;;;5016506;28;19914;-81
2022/03/09 13:20:10;;;;;;;;;;;25.90;99.90;;;;;;5019455;28;19932;-81
2022/03/09 13:22:42;;;;;;;;;;;25.40;99.90;;;;;;5017762;28;20490;-82
2022/03/09 13:25:08;;;;;;;;;;;25.50;99.90;;;;;;5019487;28;20224;-82
2022/03/09 13:27:34;;;;;;;;;;;24.90;99.90;;;;;;5018428;28;19913;-81
2022/03/09 13:30:09;;;;;;;;;;;24.50;99.90;;;;;;5018683;28;19921;-82
2022/03/09 13:32:35;;;;;;;;;;;24.50;99.90;;;;;;5017616;28;20004;-81
2022/03/09 13:35:00;;;;;;;;;;;23.90;99.90;;;;;;5019460;28;20010;-82
2022/03/09 13:37:36;;;;;;;;;;;23.40;99.90;;;;;;5018475;28;19917;-82
2022/03/09 13:40:03;;;;;;;;;;;23.30;99.90;;;;;;5018525;28;19933;-82
2022/03/09 13:42:36;;;;;;;;;;;23.80;99.90;;;;;;5019877;28;19987;-81
2022/03/09 13:45:31;;;;;;;;;;;23.50;99.90;;;;;;5019874;28;19920;-82
2022/03/09 13:47:56;;;;;;;;;;;23.30;99.90;;;;;;5014133;28;19910;-81
2022/03/09 13:50:23;;;;;;;;;;;23.40;99.90;;;;;;5018144;28;20285;-82
2022/03/09 13:52:49;;;;;;;;;;;22.90;99.90;;;;;;5018393;28;19918;-82
2022/03/09 13:55:20;;;;;;;;;;;23.00;99.90;;;;;;5035039;28;19913;-81
2022/03/09 13:57:45;;;;;;;;;;;22.50;99.90;;;;;;5019246;28;19925;-82
2022/03/09 14:00:11;;;;;;;;;;;22.40;99.90;;;;;;5019105;28;19913;-82
2022/03/09 14:02:37;;;;;;;;;;;22.30;99.90;;;;;;5019841;28;20270;-82
2022/03/09 14:05:02;;;;;;;;;;;22.70;99.90;;;;;;5019106;28;19925;-82
2022/03/09 14:07:38;;;;;;;;;;;23.10;99.90;;;;;;5017661;28;19956;-81
2022/03/09 14:10:32;;;;;;;;;;;23.30;99.90;;;;;;5013234;28;20362;-81
2022/03/09 14:13:05;;;;;;;;;;;23.10;99.90;;;;;;5010294;28;19909;-81
2022/03/09 14:15:32;;;;;;;;;;;22.70;99.90;;;;;;5017115;28;19913;-81
2022/03/09 14:18:00;;;;;;;;;;;21.90;99.90;;;;;;5018287;28;19909;-81
2022/03/09 14:20:26;;;;;;;;;;;22.00;99.90;;;;;;5017100;28;19913;-81
2022/03/09 14:22:51;;;;;;;;;;;22.20;99.90;;;;;;5032998;28;19956;-82
2022/03/09 14:25:18;;;;;;;;;;;22.30;99.90;;;;;;5015638;28;19927;-81